Airfield :
LOGIN :

Register | Disclaimer

   EN    FR    IT 

 










Legend :    VFR   Marginal VFR   IFR   Intensive IFR   Very Intensive IFR
Visi :
Ceiling :
>= 8 km
>= 3000ft
5 to 8 km
1000 to 3000 ft
1500m to 5 km
500 to 1000 ft
800 to 1500m
200 to 500 ft
< 800m
< 200 ft
Symbols :   Thunderstorms  Fog  Heavy snow  Heavy precipitations  Wind > 20 kt
SIGMETs :     Misc.  Thunderstorms  Icing  Turbulence  Mountain Waves  Volcanic Ashes







- Airport Elevation : 19 ft
- IATA code : DJE


DTTJ - Djerba Zarzis

CURRENT METAR :
  • 221100Z 35011KT 9999 SCT020 29/17 Q1019 NOSIG

EXPIRED METARs :
  • 221030Z 36009KT 9999 SCT020 29/17 Q1019 NOSIG
  • 221000Z 34009KT 320V020 9999 SCT020 29/19 Q1019 NOSIG
  • 220900Z 34007KT 9999 SCT020 28/18 Q1019 NOSIG
  • 220830Z 35008KT 9999 SCT020 28/19 Q1019 NOSIG

TAF TAF DTTJ
Valid from the 22 at 06:00 until the 23 at 06:00 UTC


220500Z 2206/2306 06006KT 9999 SCT020TCU
TEMPO 2206/2209 VRB15G25KT 8000 -TSRA FEW026CB
No reported NOTAMs for that airfield.
2 SIGMETs reported for the Tunis FIR (DTTC) :
 
Embedded thunderstorms
DTTC SIGMET 04 VALID 221130/221530 DTTA DTTC TUNIS FIR EMBD TS OBS N OF N3500.CB TOPS BLW FL400 STNR=
Embedded thunderstorms
DTTC SIGMET 03 VALID 220730/221130 DTTA DTTC TUNIS FIR EMBD TS OBS S OF N3850.CB TOPS BLW FL400 MOV SSW SLW NC=



MET'MAP, your aeronautical weather chart ! - Copyright ORBIFLY December 2007 - Disclaimer

ORBIFLY MET'MAP TEAM :

Programming & Development : Alexandra Zaïnal
Concept & Development : Baudouin d'Aumeries
Co-Development & Prog : Marc-Olivier Méhu
Technical & hardware support : Manuel Goepfert

Contact : metmap@orbifly.com




SOURCES & CREDITS :

   NOAA